Terminal Aerodrome Forecast
Issued by NWS

Home | Current Version | Previous Version | Text Only | Print | Product List | Glossary On
Versions: 1 2 3 4 5 6 7 8 9 10 11 12
000
FTUS43 KPAH 112320
TAFCGI
TAF
KCGI 112320Z 1200/1224 30012G20KT P6SM SCT250
     FM120200 31013G21KT P6SM SCT025 BKN050
     FM120500 32014G22KT P6SM BKN025
     FM121100 33015G23KT P6SM SCT025
     FM121600 32012G20KT P6SM SKC=

USA.gov is the U.S. government's official web portal to all federal, state and local government web resources and services.